sensor_id;sensor_type;location;lat;lon;timestamp;temperature;humidity
22456;DHT22;11395;53.204;6.502;2023-02-01T00:02:21;22.10;55.80
22456;DHT22;11395;53.204;6.502;2023-02-01T00:04:47;22.00;55.80
22456;DHT22;11395;53.204;6.502;2023-02-01T00:07:14;22.00;55.80
22456;DHT22;11395;53.204;6.502;2023-02-01T00:09:40;21.90;55.90
22456;DHT22;11395;53.204;6.502;2023-02-01T00:12:06;21.90;55.90
22456;DHT22;11395;53.204;6.502;2023-02-01T00:14:32;21.90;55.90
22456;DHT22;11395;53.204;6.502;2023-02-01T00:17:05;21.80;55.90
22456;DHT22;11395;53.204;6.502;2023-02-01T00:19:33;21.80;55.90
22456;DHT22;11395;53.204;6.502;2023-02-01T00:21:59;21.80;56.00
22456;DHT22;11395;53.204;6.502;2023-02-01T00:24:26;21.80;56.00
22456;DHT22;11395;53.204;6.502;2023-02-01T00:26:52;21.70;55.90
22456;DHT22;11395;53.204;6.502;2023-02-01T00:29:19;21.70;56.10
22456;DHT22;11395;53.204;6.502;2023-02-01T00:31:46;21.60;56.00
22456;DHT22;11395;53.204;6.502;2023-02-01T00:34:15;21.60;56.00
22456;DHT22;11395;53.204;6.502;2023-02-01T00:36:42;21.60;56.10
22456;DHT22;11395;53.204;6.502;2023-02-01T00:39:09;21.60;56.20
22456;DHT22;11395;53.204;6.502;2023-02-01T00:41:36;21.50;56.20
22456;DHT22;11395;53.204;6.502;2023-02-01T00:44:03;21.50;56.20
22456;DHT22;11395;53.204;6.502;2023-02-01T00:46:30;21.50;56.20
22456;DHT22;11395;53.204;6.502;2023-02-01T00:48:56;21.40;56.20
22456;DHT22;11395;53.204;6.502;2023-02-01T00:51:25;21.40;56.10
22456;DHT22;11395;53.204;6.502;2023-02-01T00:53:52;21.40;56.20
22456;DHT22;11395;53.204;6.502;2023-02-01T00:56:19;21.30;56.20
22456;DHT22;11395;53.204;6.502;2023-02-01T00:58:45;21.30;56.20
22456;DHT22;11395;53.204;6.502;2023-02-01T01:01:20;21.20;56.20
22456;DHT22;11395;53.204;6.502;2023-02-01T01:03:55;21.20;56.20
22456;DHT22;11395;53.204;6.502;2023-02-01T01:06:25;21.20;56.20
22456;DHT22;11395;53.204;6.502;2023-02-01T01:08:53;21.10;56.10
22456;DHT22;11395;53.204;6.502;2023-02-01T01:11:24;21.10;56.20
22456;DHT22;11395;53.204;6.502;2023-02-01T01:13:52;21.10;56.20
22456;DHT22;11395;53.204;6.502;2023-02-01T01:16:19;21.10;56.30
22456;DHT22;11395;53.204;6.502;2023-02-01T01:18:46;21.00;56.20
22456;DHT22;11395;53.204;6.502;2023-02-01T01:21:14;21.00;56.20
22456;DHT22;11395;53.204;6.502;2023-02-01T01:23:41;21.00;56.30
22456;DHT22;11395;53.204;6.502;2023-02-01T01:26:10;20.90;56.30
22456;DHT22;11395;53.204;6.502;2023-02-01T01:28:38;20.90;57.00
22456;DHT22;11395;53.204;6.502;2023-02-01T01:31:08;20.90;56.30
22456;DHT22;11395;53.204;6.502;2023-02-01T01:33:34;20.80;56.30
22456;DHT22;11395;53.204;6.502;2023-02-01T01:36:01;20.80;56.30
22456;DHT22;11395;53.204;6.502;2023-02-01T01:38:27;20.80;56.40
22456;DHT22;11395;53.204;6.502;2023-02-01T01:40:53;20.80;57.00
22456;DHT22;11395;53.204;6.502;2023-02-01T01:43:20;20.70;56.40
22456;DHT22;11395;53.204;6.502;2023-02-01T01:45:49;20.70;56.50
22456;DHT22;11395;53.204;6.502;2023-02-01T01:48:26;20.70;56.50
22456;DHT22;11395;53.204;6.502;2023-02-01T01:51:02;20.60;56.50
22456;DHT22;11395;53.204;6.502;2023-02-01T01:53:37;20.60;56.50
22456;DHT22;11395;53.204;6.502;2023-02-01T01:56:04;20.50;56.50
22456;DHT22;11395;53.204;6.502;2023-02-01T01:58:32;20.50;56.50
22456;DHT22;11395;53.204;6.502;2023-02-01T02:00:59;20.50;56.50
22456;DHT22;11395;53.204;6.502;2023-02-01T02:05:57;20.50;56.60
22456;DHT22;11395;53.204;6.502;2023-02-01T02:08:26;20.40;56.60
22456;DHT22;11395;53.204;6.502;2023-02-01T02:10:53;20.40;56.70
22456;DHT22;11395;53.204;6.502;2023-02-01T02:13:43;20.40;56.70
22456;DHT22;11395;53.204;6.502;2023-02-01T02:24:45;20.30;56.80
22456;DHT22;11395;53.204;6.502;2023-02-01T02:27:57;20.20;56.80
22456;DHT22;11395;53.204;6.502;2023-02-01T02:36:07;20.20;57.10
22456;DHT22;11395;53.204;6.502;2023-02-01T02:38:47;20.10;57.00
22456;DHT22;11395;53.204;6.502;2023-02-01T02:41:25;20.00;57.00
22456;DHT22;11395;53.204;6.502;2023-02-01T02:44:24;20.00;57.00
22456;DHT22;11395;53.204;6.502;2023-02-01T02:47:20;20.00;57.10
22456;DHT22;11395;53.204;6.502;2023-02-01T02:49:58;20.00;57.10
22456;DHT22;11395;53.204;6.502;2023-02-01T02:53:07;20.00;57.00
22456;DHT22;11395;53.204;6.502;2023-02-01T02:55:54;20.00;57.00
22456;DHT22;11395;53.204;6.502;2023-02-01T02:58:41;20.00;57.00
22456;DHT22;11395;53.204;6.502;2023-02-01T03:01:27;19.90;57.00
22456;DHT22;11395;53.204;6.502;2023-02-01T03:04:13;19.90;57.60
22456;DHT22;11395;53.204;6.502;2023-02-01T03:06:45;19.90;57.00
22456;DHT22;11395;53.204;6.502;2023-02-01T03:09:38;19.90;57.10
22456;DHT22;11395;53.204;6.502;2023-02-01T03:12:10;19.80;57.00
22456;DHT22;11395;53.204;6.502;2023-02-01T03:15:03;19.80;56.90
22456;DHT22;11395;53.204;6.502;2023-02-01T03:17:35;19.80;57.70
22456;DHT22;11395;53.204;6.502;2023-02-01T03:20:05;19.80;57.10
22456;DHT22;11395;53.204;6.502;2023-02-01T03:22:32;19.80;57.00
22456;DHT22;11395;53.204;6.502;2023-02-01T03:25:04;19.80;57.10
22456;DHT22;11395;53.204;6.502;2023-02-01T03:27:43;19.70;57.00
22456;DHT22;11395;53.204;6.502;2023-02-01T03:30:22;19.80;57.30
22456;DHT22;11395;53.204;6.502;2023-02-01T03:32:53;19.80;57.20
22456;DHT22;11395;53.204;6.502;2023-02-01T03:38:31;19.70;57.20
22456;DHT22;11395;53.204;6.502;2023-02-01T03:46:27;19.60;57.10
22456;DHT22;11395;53.204;6.502;2023-02-01T03:49:01;19.60;57.20
22456;DHT22;11395;53.204;6.502;2023-02-01T03:51:30;19.60;57.10
22456;DHT22;11395;53.204;6.502;2023-02-01T03:53:57;19.60;57.10
22456;DHT22;11395;53.204;6.502;2023-02-01T03:56:25;19.60;57.20
22456;DHT22;11395;53.204;6.502;2023-02-01T03:58:53;19.60;57.10
22456;DHT22;11395;53.204;6.502;2023-02-01T04:01:29;19.50;57.20
22456;DHT22;11395;53.204;6.502;2023-02-01T04:03:57;19.50;57.20
22456;DHT22;11395;53.204;6.502;2023-02-01T04:06:24;19.50;57.40
22456;DHT22;11395;53.204;6.502;2023-02-01T04:08:52;19.50;57.20
22456;DHT22;11395;53.204;6.502;2023-02-01T04:11:18;19.50;57.20
22456;DHT22;11395;53.204;6.502;2023-02-01T04:13:45;19.50;57.20
22456;DHT22;11395;53.204;6.502;2023-02-01T04:16:11;19.50;57.20
22456;DHT22;11395;53.204;6.502;2023-02-01T04:18:37;19.50;57.20
22456;DHT22;11395;53.204;6.502;2023-02-01T04:21:04;19.60;57.90
22456;DHT22;11395;53.204;6.502;2023-02-01T04:23:30;19.70;57.20
22456;DHT22;11395;53.204;6.502;2023-02-01T04:26:01;19.80;57.10
22456;DHT22;11395;53.204;6.502;2023-02-01T04:28:28;19.80;57.10
22456;DHT22;11395;53.204;6.502;2023-02-01T04:30:56;19.90;57.00
22456;DHT22;11395;53.204;6.502;2023-02-01T04:33:22;20.10;56.90
22456;DHT22;11395;53.204;6.502;2023-02-01T04:35:48;20.20;56.90
22456;DHT22;11395;53.204;6.502;2023-02-01T04:38:15;20.30;56.70
22456;DHT22;11395;53.204;6.502;2023-02-01T04:40:41;20.50;56.60
22456;DHT22;11395;53.204;6.502;2023-02-01T04:43:07;20.50;56.40
22456;DHT22;11395;53.204;6.502;2023-02-01T04:45:34;20.70;56.30
22456;DHT22;11395;53.204;6.502;2023-02-01T04:48:00;20.70;56.10
22456;DHT22;11395;53.204;6.502;2023-02-01T04:50:26;20.80;56.00
22456;DHT22;11395;53.204;6.502;2023-02-01T04:52:52;20.90;55.90
22456;DHT22;11395;53.204;6.502;2023-02-01T04:55:18;20.90;55.80
22456;DHT22;11395;53.204;6.502;2023-02-01T04:57:45;21.00;55.70
22456;DHT22;11395;53.204;6.502;2023-02-01T05:00:11;21.00;55.60
22456;DHT22;11395;53.204;6.502;2023-02-01T05:02:39;21.00;55.50
22456;DHT22;11395;53.204;6.502;2023-02-01T05:05:05;21.00;56.10
22456;DHT22;11395;53.204;6.502;2023-02-01T05:07:31;21.10;55.50
22456;DHT22;11395;53.204;6.502;2023-02-01T05:09:57;21.10;55.40
22456;DHT22;11395;53.204;6.502;2023-02-01T05:12:24;21.20;55.40
22456;DHT22;11395;53.204;6.502;2023-02-01T05:15:08;21.30;55.30
22456;DHT22;11395;53.204;6.502;2023-02-01T05:17:34;21.30;55.30
22456;DHT22;11395;53.204;6.502;2023-02-01T05:20:01;21.40;55.20
22456;DHT22;11395;53.204;6.502;2023-02-01T05:22:28;21.50;55.10
22456;DHT22;11395;53.204;6.502;2023-02-01T05:24:54;21.60;55.10
22456;DHT22;11395;53.204;6.502;2023-02-01T05:27:20;21.70;54.90
22456;DHT22;11395;53.204;6.502;2023-02-01T05:29:46;21.80;54.90
22456;DHT22;11395;53.204;6.502;2023-02-01T05:32:12;22.00;54.70
22456;DHT22;11395;53.204;6.502;2023-02-01T05:34:39;22.10;54.60
22456;DHT22;11395;53.204;6.502;2023-02-01T05:37:05;22.20;54.40
22456;DHT22;11395;53.204;6.502;2023-02-01T05:39:31;22.30;54.20
22456;DHT22;11395;53.204;6.502;2023-02-01T05:41:57;22.50;54.20
22456;DHT22;11395;53.204;6.502;2023-02-01T05:44:23;22.60;53.90
22456;DHT22;11395;53.204;6.502;2023-02-01T05:46:49;22.70;53.70
22456;DHT22;11395;53.204;6.502;2023-02-01T05:49:18;22.90;53.50
22456;DHT22;11395;53.204;6.502;2023-02-01T05:51:44;23.00;53.40
22456;DHT22;11395;53.204;6.502;2023-02-01T05:54:10;23.20;53.30
22456;DHT22;11395;53.204;6.502;2023-02-01T05:56:36;23.30;52.90
22456;DHT22;11395;53.204;6.502;2023-02-01T05:59:03;23.40;52.80
22456;DHT22;11395;53.204;6.502;2023-02-01T06:01:29;23.60;52.90
22456;DHT22;11395;53.204;6.502;2023-02-01T06:03:55;23.70;52.60
22456;DHT22;11395;53.204;6.502;2023-02-01T06:06:21;23.70;52.70
22456;DHT22;11395;53.204;6.502;2023-02-01T06:08:47;23.80;52.70
22456;DHT22;11395;53.204;6.502;2023-02-01T06:11:13;23.90;53.40
22456;DHT22;11395;53.204;6.502;2023-02-01T06:13:40;23.90;52.50
22456;DHT22;11395;53.204;6.502;2023-02-01T06:16:06;23.90;52.50
22456;DHT22;11395;53.204;6.502;2023-02-01T06:18:34;24.00;52.30
22456;DHT22;11395;53.204;6.502;2023-02-01T06:21:01;24.00;52.10
22456;DHT22;11395;53.204;6.502;2023-02-01T06:23:28;24.00;51.90
22456;DHT22;11395;53.204;6.502;2023-02-01T06:26:03;24.00;52.10
22456;DHT22;11395;53.204;6.502;2023-02-01T06:28:31;23.90;52.00
22456;DHT22;11395;53.204;6.502;2023-02-01T06:30:57;23.90;52.10
22456;DHT22;11395;53.204;6.502;2023-02-01T06:33:25;23.90;52.20
22456;DHT22;11395;53.204;6.502;2023-02-01T06:35:58;23.80;52.30
22456;DHT22;11395;53.204;6.502;2023-02-01T06:38:25;23.80;52.20
22456;DHT22;11395;53.204;6.502;2023-02-01T06:40:53;23.80;52.30
22456;DHT22;11395;53.204;6.502;2023-02-01T06:43:21;23.70;51.80
22456;DHT22;11395;53.204;6.502;2023-02-01T06:45:48;23.60;52.00
22456;DHT22;11395;53.204;6.502;2023-02-01T06:48:14;23.60;51.90
22456;DHT22;11395;53.204;6.502;2023-02-01T06:50:40;23.50;52.00
22456;DHT22;11395;53.204;6.502;2023-02-01T06:53:06;23.40;52.20
22456;DHT22;11395;53.204;6.502;2023-02-01T06:55:32;23.40;52.40
22456;DHT22;11395;53.204;6.502;2023-02-01T06:57:59;23.30;52.70
22456;DHT22;11395;53.204;6.502;2023-02-01T07:00:26;23.30;52.80
22456;DHT22;11395;53.204;6.502;2023-02-01T07:02:53;23.30;52.90
22456;DHT22;11395;53.204;6.502;2023-02-01T07:05:19;23.30;52.90
22456;DHT22;11395;53.204;6.502;2023-02-01T07:07:45;23.40;53.00
22456;DHT22;11395;53.204;6.502;2023-02-01T07:10:11;23.40;52.90
22456;DHT22;11395;53.204;6.502;2023-02-01T07:12:38;23.50;52.90
22456;DHT22;11395;53.204;6.502;2023-02-01T07:15:05;23.60;52.90
22456;DHT22;11395;53.204;6.502;2023-02-01T07:17:31;23.70;52.90
22456;DHT22;11395;53.204;6.502;2023-02-01T07:19:58;23.70;52.80
22456;DHT22;11395;53.204;6.502;2023-02-01T07:22:27;23.80;52.70
22456;DHT22;11395;53.204;6.502;2023-02-01T07:24:54;23.80;52.60
22456;DHT22;11395;53.204;6.502;2023-02-01T07:27:20;23.90;52.50
22456;DHT22;11395;53.204;6.502;2023-02-01T07:29:46;23.90;52.40
22456;DHT22;11395;53.204;6.502;2023-02-01T07:32:12;23.90;52.20
22456;DHT22;11395;53.204;6.502;2023-02-01T07:34:38;23.90;52.30
22456;DHT22;11395;53.204;6.502;2023-02-01T07:37:05;24.00;52.40
22456;DHT22;11395;53.204;6.502;2023-02-01T07:39:32;23.90;53.00
22456;DHT22;11395;53.204;6.502;2023-02-01T07:41:58;23.90;52.30
22456;DHT22;11395;53.204;6.502;2023-02-01T07:44:24;23.80;52.20
22456;DHT22;11395;53.204;6.502;2023-02-01T07:46:51;23.80;52.20
22456;DHT22;11395;53.204;6.502;2023-02-01T07:49:17;23.80;52.20
22456;DHT22;11395;53.204;6.502;2023-02-01T07:51:43;23.80;52.20
22456;DHT22;11395;53.204;6.502;2023-02-01T07:54:10;23.70;52.20
22456;DHT22;11395;53.204;6.502;2023-02-01T07:56:36;23.70;52.40
22456;DHT22;11395;53.204;6.502;2023-02-01T07:59:02;23.60;52.20
22456;DHT22;11395;53.204;6.502;2023-02-01T08:01:29;23.60;52.70
22456;DHT22;11395;53.204;6.502;2023-02-01T08:03:58;23.60;52.80
22456;DHT22;11395;53.204;6.502;2023-02-01T08:06:26;23.50;52.70
22456;DHT22;11395;53.204;6.502;2023-02-01T08:08:53;23.50;52.80
22456;DHT22;11395;53.204;6.502;2023-02-01T08:11:21;23.40;52.90
22456;DHT22;11395;53.204;6.502;2023-02-01T08:13:48;23.40;52.90
22456;DHT22;11395;53.204;6.502;2023-02-01T08:16:16;23.40;53.20
22456;DHT22;11395;53.204;6.502;2023-02-01T08:18:43;23.50;53.40
22456;DHT22;11395;53.204;6.502;2023-02-01T08:21:16;23.50;53.40
22456;DHT22;11395;53.204;6.502;2023-02-01T08:23:43;23.60;53.50
22456;DHT22;11395;53.204;6.502;2023-02-01T08:26:21;23.60;53.40
22456;DHT22;11395;53.204;6.502;2023-02-01T08:28:50;23.70;53.20
22456;DHT22;11395;53.204;6.502;2023-02-01T08:31:19;23.70;53.10
22456;DHT22;11395;53.204;6.502;2023-02-01T08:34:04;23.70;52.90
22456;DHT22;11395;53.204;6.502;2023-02-01T08:36:32;23.80;52.90
22456;DHT22;11395;53.204;6.502;2023-02-01T08:38:58;23.70;52.70
22456;DHT22;11395;53.204;6.502;2023-02-01T08:41:28;23.70;52.70
22456;DHT22;11395;53.204;6.502;2023-02-01T08:43:56;23.70;52.70
22456;DHT22;11395;53.204;6.502;2023-02-01T08:46:23;23.70;52.70
22456;DHT22;11395;53.204;6.502;2023-02-01T08:48:49;23.70;53.40
22456;DHT22;11395;53.204;6.502;2023-02-01T08:51:17;23.60;52.80
22456;DHT22;11395;53.204;6.502;2023-02-01T08:53:44;23.60;52.70
22456;DHT22;11395;53.204;6.502;2023-02-01T08:56:11;23.50;52.60
22456;DHT22;11395;53.204;6.502;2023-02-01T08:58:38;23.50;52.70
22456;DHT22;11395;53.204;6.502;2023-02-01T09:01:07;23.50;52.70
22456;DHT22;11395;53.204;6.502;2023-02-01T09:03:33;23.50;52.80
22456;DHT22;11395;53.204;6.502;2023-02-01T09:06:01;23.40;52.80
22456;DHT22;11395;53.204;6.502;2023-02-01T09:08:28;23.40;52.80
22456;DHT22;11395;53.204;6.502;2023-02-01T09:10:58;23.40;53.10
22456;DHT22;11395;53.204;6.502;2023-02-01T09:13:25;23.40;53.10
22456;DHT22;11395;53.204;6.502;2023-02-01T09:15:51;23.40;53.10
22456;DHT22;11395;53.204;6.502;2023-02-01T09:18:17;23.50;53.30
22456;DHT22;11395;53.204;6.502;2023-02-01T09:20:43;23.60;53.20
22456;DHT22;11395;53.204;6.502;2023-02-01T09:23:10;23.60;53.10
22456;DHT22;11395;53.204;6.502;2023-02-01T09:25:37;23.60;53.10
22456;DHT22;11395;53.204;6.502;2023-02-01T09:28:05;23.70;53.00
22456;DHT22;11395;53.204;6.502;2023-02-01T09:30:33;23.70;53.00
22456;DHT22;11395;53.204;6.502;2023-02-01T09:32:59;23.70;53.00
22456;DHT22;11395;53.204;6.502;2023-02-01T09:35:25;23.80;53.00
22456;DHT22;11395;53.204;6.502;2023-02-01T09:37:55;23.80;53.60
22456;DHT22;11395;53.204;6.502;2023-02-01T09:40:21;23.90;52.90
22456;DHT22;11395;53.204;6.502;2023-02-01T09:43:00;23.90;52.90
22456;DHT22;11395;53.204;6.502;2023-02-01T09:48:37;23.90;52.70
22456;DHT22;11395;53.204;6.502;2023-02-01T09:51:19;23.90;52.70
22456;DHT22;11395;53.204;6.502;2023-02-01T09:54:01;23.90;52.80
22456;DHT22;11395;53.204;6.502;2023-02-01T09:56:56;23.90;52.80
22456;DHT22;11395;53.204;6.502;2023-02-01T09:59:39;23.90;52.90
22456;DHT22;11395;53.204;6.502;2023-02-01T10:02:19;23.80;52.90
22456;DHT22;11395;53.204;6.502;2023-02-01T10:04:47;23.80;52.90
22456;DHT22;11395;53.204;6.502;2023-02-01T10:28:46;23.40;53.20
22456;DHT22;11395;53.204;6.502;2023-02-01T10:31:15;23.30;53.20
22456;DHT22;11395;53.204;6.502;2023-02-01T10:33:45;23.30;53.30
22456;DHT22;11395;53.204;6.502;2023-02-01T10:36:23;23.20;53.40
22456;DHT22;11395;53.204;6.502;2023-02-01T10:38:51;23.20;53.50
22456;DHT22;11395;53.204;6.502;2023-02-01T10:41:21;23.30;53.60
22456;DHT22;11395;53.204;6.502;2023-02-01T10:43:53;23.30;53.50
22456;DHT22;11395;53.204;6.502;2023-02-01T10:46:22;23.30;53.50
22456;DHT22;11395;53.204;6.502;2023-02-01T10:48:50;23.40;53.50
22456;DHT22;11395;53.204;6.502;2023-02-01T10:51:24;23.50;53.50
22456;DHT22;11395;53.204;6.502;2023-02-01T10:54:02;23.60;53.50
22456;DHT22;11395;53.204;6.502;2023-02-01T10:56:29;23.70;53.50
22456;DHT22;11395;53.204;6.502;2023-02-01T10:59:04;23.70;53.40
22456;DHT22;11395;53.204;6.502;2023-02-01T11:01:36;23.80;53.30
22456;DHT22;11395;53.204;6.502;2023-02-01T11:04:15;23.80;53.20
22456;DHT22;11395;53.204;6.502;2023-02-01T11:06:44;23.80;53.10
22456;DHT22;11395;53.204;6.502;2023-02-01T11:09:22;23.80;53.00
22456;DHT22;11395;53.204;6.502;2023-02-01T11:14:38;23.80;52.90
22456;DHT22;11395;53.204;6.502;2023-02-01T11:20:00;23.80;52.90
22456;DHT22;11395;53.204;6.502;2023-02-01T11:22:27;23.80;52.90
22456;DHT22;11395;53.204;6.502;2023-02-01T11:24:55;23.70;52.90
22456;DHT22;11395;53.204;6.502;2023-02-01T11:27:23;23.70;53.00
22456;DHT22;11395;53.204;6.502;2023-02-01T11:29:52;23.60;53.00
22456;DHT22;11395;53.204;6.502;2023-02-01T11:32:20;23.60;53.10
22456;DHT22;11395;53.204;6.502;2023-02-01T11:34:52;23.50;53.00
22456;DHT22;11395;53.204;6.502;2023-02-01T11:37:24;23.50;53.00
22456;DHT22;11395;53.204;6.502;2023-02-01T11:39:56;23.50;53.10
22456;DHT22;11395;53.204;6.502;2023-02-01T11:42:23;23.40;53.10
22456;DHT22;11395;53.204;6.502;2023-02-01T11:44:49;23.40;53.10
22456;DHT22;11395;53.204;6.502;2023-02-01T11:47:30;23.40;53.20
22456;DHT22;11395;53.204;6.502;2023-02-01T11:49:59;23.40;53.20
22456;DHT22;11395;53.204;6.502;2023-02-01T11:58:59;23.30;53.30
22456;DHT22;11395;53.204;6.502;2023-02-01T12:06:50;23.40;53.30
22456;DHT22;11395;53.204;6.502;2023-02-01T12:13:18;23.50;53.30
22456;DHT22;11395;53.204;6.502;2023-02-01T12:15:50;23.60;53.30
22456;DHT22;11395;53.204;6.502;2023-02-01T12:46:07;23.90;53.50
22456;DHT22;11395;53.204;6.502;2023-02-01T12:49:00;23.80;53.30
22456;DHT22;11395;53.204;6.502;2023-02-01T12:51:31;23.70;53.30
22456;DHT22;11395;53.204;6.502;2023-02-01T12:54:31;23.70;53.40
22456;DHT22;11395;53.204;6.502;2023-02-01T13:00:36;23.60;53.50
22456;DHT22;11395;53.204;6.502;2023-02-01T13:05:44;23.50;53.40
22456;DHT22;11395;53.204;6.502;2023-02-01T13:08:15;23.40;53.40
22456;DHT22;11395;53.204;6.502;2023-02-01T13:10:45;23.40;53.50
22456;DHT22;11395;53.204;6.502;2023-02-01T13:13:42;23.30;53.50
22456;DHT22;11395;53.204;6.502;2023-02-01T13:19:22;23.20;53.60
22456;DHT22;11395;53.204;6.502;2023-02-01T13:22:17;23.20;53.60
22456;DHT22;11395;53.204;6.502;2023-02-01T13:24:56;23.20;53.80
22456;DHT22;11395;53.204;6.502;2023-02-01T13:27:27;23.10;53.80
22456;DHT22;11395;53.204;6.502;2023-02-01T13:30:04;23.20;53.90
22456;DHT22;11395;53.204;6.502;2023-02-01T13:42:15;23.40;53.90
22456;DHT22;11395;53.204;6.502;2023-02-01T13:44:49;23.40;53.70
22456;DHT22;11395;53.204;6.502;2023-02-01T13:47:40;23.40;53.70
22456;DHT22;11395;53.204;6.502;2023-02-01T13:50:27;23.50;53.60
22456;DHT22;11395;53.204;6.502;2023-02-01T13:53:00;23.50;53.60
22456;DHT22;11395;53.204;6.502;2023-02-01T13:55:33;23.60;53.60
22456;DHT22;11395;53.204;6.502;2023-02-01T13:58:14;23.50;53.50
22456;DHT22;11395;53.204;6.502;2023-02-01T14:00:42;23.50;53.50
22456;DHT22;11395;53.204;6.502;2023-02-01T14:03:22;23.50;53.50
22456;DHT22;11395;53.204;6.502;2023-02-01T14:08:45;23.40;53.50
22456;DHT22;11395;53.204;6.502;2023-02-01T14:11:35;23.40;54.20
22456;DHT22;11395;53.204;6.502;2023-02-01T14:16:58;23.30;53.70
22456;DHT22;11395;53.204;6.502;2023-02-01T14:19:35;23.30;53.70
22456;DHT22;11395;53.204;6.502;2023-02-01T14:24:54;23.20;53.90
22456;DHT22;11395;53.204;6.502;2023-02-01T14:27:28;23.10;53.90
22456;DHT22;11395;53.204;6.502;2023-02-01T14:29:58;23.10;54.10
22456;DHT22;11395;53.204;6.502;2023-02-01T14:35:01;23.10;54.40
22456;DHT22;11395;53.204;6.502;2023-02-01T14:37:34;23.10;54.40
22456;DHT22;11395;53.204;6.502;2023-02-01T14:40:15;23.10;54.40
22456;DHT22;11395;53.204;6.502;2023-02-01T14:55:55;23.40;54.20
22456;DHT22;11395;53.204;6.502;2023-02-01T14:58:39;23.50;54.20
22456;DHT22;11395;53.204;6.502;2023-02-01T15:09:17;23.50;54.30
22456;DHT22;11395;53.204;6.502;2023-02-01T15:14:38;23.40;54.40
22456;DHT22;11395;53.204;6.502;2023-02-01T15:17:25;23.40;54.50
22456;DHT22;11395;53.204;6.502;2023-02-01T15:20:03;23.30;54.50
22456;DHT22;11395;53.204;6.502;2023-02-01T15:22:31;23.30;54.60
22456;DHT22;11395;53.204;6.502;2023-02-01T15:24:59;23.30;54.90
22456;DHT22;11395;53.204;6.502;2023-02-01T15:27:27;23.30;54.70
22456;DHT22;11395;53.204;6.502;2023-02-01T15:29:53;23.30;54.80
22456;DHT22;11395;53.204;6.502;2023-02-01T15:32:34;23.30;54.80
22456;DHT22;11395;53.204;6.502;2023-02-01T15:35:01;23.20;54.80
22456;DHT22;11395;53.204;6.502;2023-02-01T15:37:29;23.20;54.80
22456;DHT22;11395;53.204;6.502;2023-02-01T15:40:19;23.20;54.80
22456;DHT22;11395;53.204;6.502;2023-02-01T15:42:56;23.10;54.90
22456;DHT22;11395;53.204;6.502;2023-02-01T15:45:29;23.10;54.80
22456;DHT22;11395;53.204;6.502;2023-02-01T15:47:57;23.10;55.00
22456;DHT22;11395;53.204;6.502;2023-02-01T15:50:24;23.10;55.00
22456;DHT22;11395;53.204;6.502;2023-02-01T15:52:53;23.10;55.10
22456;DHT22;11395;53.204;6.502;2023-02-01T15:58:08;23.20;55.20
22456;DHT22;11395;53.204;6.502;2023-02-01T16:00:57;23.20;55.20
22456;DHT22;11395;53.204;6.502;2023-02-01T16:06:30;23.30;55.00
22456;DHT22;11395;53.204;6.502;2023-02-01T16:09:12;23.30;54.80
22456;DHT22;11395;53.204;6.502;2023-02-01T16:11:55;23.40;54.60
22456;DHT22;11395;53.204;6.502;2023-02-01T16:14:21;23.40;54.20
22456;DHT22;11395;53.204;6.502;2023-02-01T16:16:48;23.40;53.70
22456;DHT22;11395;53.204;6.502;2023-02-01T16:19:15;23.40;53.60
22456;DHT22;11395;53.204;6.502;2023-02-01T16:21:41;23.40;53.50
22456;DHT22;11395;53.204;6.502;2023-02-01T16:24:07;23.40;53.90
22456;DHT22;11395;53.204;6.502;2023-02-01T16:26:34;23.50;54.30
22456;DHT22;11395;53.204;6.502;2023-02-01T16:29:01;23.50;54.60
22456;DHT22;11395;53.204;6.502;2023-02-01T16:31:35;23.50;54.40
22456;DHT22;11395;53.204;6.502;2023-02-01T16:34:02;23.50;54.20
22456;DHT22;11395;53.204;6.502;2023-02-01T16:36:29;23.50;54.40
22456;DHT22;11395;53.204;6.502;2023-02-01T16:38:55;23.50;54.30
22456;DHT22;11395;53.204;6.502;2023-02-01T16:41:23;23.40;54.40
22456;DHT22;11395;53.204;6.502;2023-02-01T16:43:51;23.40;54.50
22456;DHT22;11395;53.204;6.502;2023-02-01T16:46:21;23.40;54.50
22456;DHT22;11395;53.204;6.502;2023-02-01T16:48:56;23.40;54.50
22456;DHT22;11395;53.204;6.502;2023-02-01T16:51:24;23.30;54.70
22456;DHT22;11395;53.204;6.502;2023-02-01T16:53:51;23.30;54.90
22456;DHT22;11395;53.204;6.502;2023-02-01T16:56:20;23.30;54.90
22456;DHT22;11395;53.204;6.502;2023-02-01T16:58:47;23.30;54.90
22456;DHT22;11395;53.204;6.502;2023-02-01T17:01:17;23.30;54.90
22456;DHT22;11395;53.204;6.502;2023-02-01T17:03:44;23.30;54.90
22456;DHT22;11395;53.204;6.502;2023-02-01T17:06:15;23.30;54.90
22456;DHT22;11395;53.204;6.502;2023-02-01T17:08:45;23.30;55.00
22456;DHT22;11395;53.204;6.502;2023-02-01T17:11:12;23.20;55.00
22456;DHT22;11395;53.204;6.502;2023-02-01T17:13:39;23.20;55.00
22456;DHT22;11395;53.204;6.502;2023-02-01T17:16:25;23.20;55.10
22456;DHT22;11395;53.204;6.502;2023-02-01T17:19:13;23.20;55.10
22456;DHT22;11395;53.204;6.502;2023-02-01T17:21:45;23.10;55.20
22456;DHT22;11395;53.204;6.502;2023-02-01T17:24:13;23.00;55.30
22456;DHT22;11395;53.204;6.502;2023-02-01T17:26:41;23.00;55.50
22456;DHT22;11395;53.204;6.502;2023-02-01T17:29:07;23.00;55.40
22456;DHT22;11395;53.204;6.502;2023-02-01T17:31:39;23.10;55.50
22456;DHT22;11395;53.204;6.502;2023-02-01T17:34:08;23.10;55.70
22456;DHT22;11395;53.204;6.502;2023-02-01T17:36:34;23.20;55.80
22456;DHT22;11395;53.204;6.502;2023-02-01T17:39:02;23.20;55.50
22456;DHT22;11395;53.204;6.502;2023-02-01T17:41:28;23.30;55.50
22456;DHT22;11395;53.204;6.502;2023-02-01T17:43:55;23.30;55.50
22456;DHT22;11395;53.204;6.502;2023-02-01T17:46:21;23.40;55.40
22456;DHT22;11395;53.204;6.502;2023-02-01T17:48:53;23.40;55.40
22456;DHT22;11395;53.204;6.502;2023-02-01T17:51:29;23.50;55.30
22456;DHT22;11395;53.204;6.502;2023-02-01T17:53:56;23.50;55.30
22456;DHT22;11395;53.204;6.502;2023-02-01T17:56:24;23.50;54.60
22456;DHT22;11395;53.204;6.502;2023-02-01T17:58:51;23.50;54.70
22456;DHT22;11395;53.204;6.502;2023-02-01T18:01:22;23.50;54.80
22456;DHT22;11395;53.204;6.502;2023-02-01T18:03:50;23.50;54.10
22456;DHT22;11395;53.204;6.502;2023-02-01T18:06:22;23.40;54.50
22456;DHT22;11395;53.204;6.502;2023-02-01T18:08:49;23.40;54.70
22456;DHT22;11395;53.204;6.502;2023-02-01T18:11:18;23.40;54.80
22456;DHT22;11395;53.204;6.502;2023-02-01T18:13:46;23.40;54.70
22456;DHT22;11395;53.204;6.502;2023-02-01T18:16:23;23.50;54.60
22456;DHT22;11395;53.204;6.502;2023-02-01T18:18:50;23.50;54.60
22456;DHT22;11395;53.204;6.502;2023-02-01T18:21:18;23.50;54.60
22456;DHT22;11395;53.204;6.502;2023-02-01T18:23:44;23.50;54.60
22456;DHT22;11395;53.204;6.502;2023-02-01T18:26:12;23.50;55.20
22456;DHT22;11395;53.204;6.502;2023-02-01T18:28:39;23.50;54.50
22456;DHT22;11395;53.204;6.502;2023-02-01T18:31:05;23.50;54.60